Time;durP1;ratioP1;P1;durP2;ratioP2;P2;SDS_P1;SDS_P2;PMS_P1;PMS_P2;Temp;Humidity;BMP_temperature;BMP_pressure;BME280_temperature;BME280_humidity;BME280_pressure;Samples;Min_cycle;Max_cycle;Signal;HPM_P1;HPM_P2
2023/02/05 00:01:19;;;;;;;12.45;8.02;;;5.80;99.90;;;;;;4938145;29;20058;-95
2023/02/05 00:03:45;;;;;;;12.52;7.78;;;5.80;99.90;;;;;;4938209;29;20040;-93
2023/02/05 00:06:11;;;;;;;14.02;8.00;;;5.80;99.90;;;;;;4917194;29;20477;-93
2023/02/05 00:08:36;;;;;;;11.57;8.00;;;5.70;99.90;;;;;;4919283;29;20048;-94
2023/02/05 00:11:08;;;;;;;10.43;8.25;;;5.80;99.90;;;;;;4919062;29;20044;-93
2023/02/05 00:13:35;;;;;;;12.73;7.90;;;5.80;99.90;;;;;;4904271;29;20127;-94
2023/02/05 00:16:10;;;;;;;11.48;7.55;;;5.80;99.90;;;;;;4902435;29;20075;-94
2023/02/05 00:18:36;;;;;;;12.07;8.73;;;5.70;99.90;;;;;;4919379;29;20048;-93
2023/02/05 00:21:03;;;;;;;12.60;8.07;;;5.80;99.90;;;;;;4902345;29;20048;-93
2023/02/05 00:23:28;;;;;;;14.18;7.80;;;5.80;99.90;;;;;;4911390;29;20452;-94
2023/02/05 00:25:54;;;;;;;12.85;7.57;;;5.70;99.90;;;;;;4921557;29;20052;-95
2023/02/05 00:28:53;;;;;;;13.25;8.15;;;5.70;99.90;;;;;;4931060;29;20044;-95
2023/02/05 00:31:20;;;;;;;15.77;8.60;;;5.70;99.90;;;;;;4851247;29;20147;-94
2023/02/05 00:33:47;;;;;;;12.32;8.05;;;5.70;99.90;;;;;;4912415;29;20522;-94
2023/02/05 00:36:13;;;;;;;17.83;7.70;;;5.70;99.90;;;;;;4937533;29;20052;-94
2023/02/05 00:38:40;;;;;;;12.65;8.38;;;5.70;99.90;;;;;;4937521;29;20415;-95
2023/02/05 00:41:05;;;;;;;18.58;9.15;;;5.70;99.90;;;;;;4910173;29;20507;-94
2023/02/05 00:43:31;;;;;;;13.18;8.20;;;5.80;99.90;;;;;;4898912;29;20051;-95
2023/02/05 00:45:57;;;;;;;12.20;8.55;;;5.70;99.90;;;;;;4901884;29;20423;-95
2023/02/05 00:48:22;;;;;;;13.75;8.63;;;5.80;99.90;;;;;;4901204;29;20048;-95
2023/02/05 00:50:52;;;;;;;14.73;8.48;;;5.80;99.90;;;;;;4901673;29;20120;-94
2023/02/05 00:53:19;;;;;;;12.95;7.53;;;5.80;99.90;;;;;;4901766;29;20457;-94
2023/02/05 00:55:44;;;;;;;17.65;8.77;;;5.80;99.90;;;;;;4901463;29;20488;-93
2023/02/05 00:58:10;;;;;;;12.75;8.25;;;5.80;99.90;;;;;;4921886;29;20051;-93
2023/02/05 01:00:36;;;;;;;16.92;8.73;;;5.80;99.90;;;;;;4920934;29;20047;-94
2023/02/05 01:03:02;;;;;;;13.95;8.27;;;5.80;99.90;;;;;;4920424;29;20047;-94
2023/02/05 01:05:29;;;;;;;21.48;9.23;;;5.80;99.90;;;;;;4920328;29;20408;-93
2023/02/05 01:07:55;;;;;;;11.32;7.60;;;5.80;99.90;;;;;;4936752;29;20040;-94
2023/02/05 01:10:21;;;;;;;22.05;9.57;;;5.80;99.90;;;;;;4901582;29;20044;-94
2023/02/05 01:12:49;;;;;;;20.05;8.55;;;5.80;99.90;;;;;;4909516;29;20408;-94
2023/02/05 01:15:14;;;;;;;22.02;9.70;;;5.80;99.90;;;;;;4901831;29;20154;-94
2023/02/05 01:17:40;;;;;;;22.55;9.52;;;5.80;99.90;;;;;;4901848;29;20079;-95
2023/02/05 01:20:07;;;;;;;20.98;9.18;;;5.80;99.90;;;;;;4901742;29;20048;-93
2023/02/05 01:22:33;;;;;;;22.00;10.20;;;5.80;99.90;;;;;;4918331;29;20049;-94
2023/02/05 01:24:58;;;;;;;24.65;9.80;;;5.80;99.90;;;;;;4907938;29;20440;-93
2023/02/05 01:27:24;;;;;;;19.80;9.32;;;5.80;99.90;;;;;;4918310;29;20123;-94
2023/02/05 01:29:50;;;;;;;21.05;10.35;;;5.90;99.90;;;;;;4901355;29;20044;-95
2023/02/05 01:32:16;;;;;;;23.70;9.65;;;5.80;99.90;;;;;;4920856;29;20040;-94
2023/02/05 01:34:42;;;;;;;25.58;10.25;;;5.80;99.90;;;;;;4922543;29;20107;-95
2023/02/05 01:37:08;;;;;;;23.70;10.13;;;5.80;99.90;;;;;;4917974;29;20059;-95
2023/02/05 01:39:36;;;;;;;22.15;9.30;;;5.80;99.90;;;;;;4928210;29;20040;-94
2023/02/05 01:42:13;;;;;;;18.45;8.63;;;5.80;99.90;;;;;;4917071;29;20052;-95
2023/02/05 01:44:39;;;;;;;15.95;8.65;;;5.80;99.90;;;;;;4912638;29;20043;-95
2023/02/05 01:47:05;;;;;;;14.02;7.25;;;5.80;99.90;;;;;;4920347;29;20488;-95
2023/02/05 01:49:42;;;;;;;20.08;8.75;;;5.80;99.90;;;;;;4928896;29;20166;-95
2023/02/05 01:52:12;;;;;;;19.75;9.73;;;5.80;99.90;;;;;;4918222;29;20064;-95
2023/02/05 01:54:42;;;;;;;17.80;9.60;;;5.80;99.90;;;;;;4921913;29;20052;-96
2023/02/05 01:57:18;;;;;;;13.85;8.30;;;5.80;99.90;;;;;;4906111;29;20079;-95
2023/02/05 01:59:45;;;;;;;20.02;8.82;;;5.80;99.90;;;;;;4931941;29;20047;-95
2023/02/05 02:02:13;;;;;;;16.63;9.20;;;5.80;99.90;;;;;;4942417;29;20051;-96
2023/02/05 02:04:50;;;;;;;22.25;9.77;;;5.80;99.90;;;;;;4931791;29;20047;-96
2023/02/05 02:07:27;;;;;;;17.63;7.93;;;5.80;99.90;;;;;;4934450;29;20047;-95
2023/02/05 02:09:54;;;;;;;22.50;9.52;;;5.80;99.90;;;;;;4934567;29;20519;-96
2023/02/05 02:12:39;;;;;;;16.65;8.55;;;5.90;99.90;;;;;;4939187;29;20071;-96
2023/02/05 02:15:16;;;;;;;29.88;11.32;;;5.90;99.90;;;;;;4924260;29;20051;-95
2023/02/05 02:17:48;;;;;;;21.67;8.82;;;5.80;99.90;;;;;;4939239;29;20047;-96
2023/02/05 02:20:36;;;;;;;29.58;11.30;;;5.80;99.90;;;;;;5161482;23;20268;-96
2023/02/05 02:23:13;;;;;;;24.30;10.95;;;5.80;99.90;;;;;;4958142;29;20186;-96
2023/02/05 02:26:21;;;;;;;18.20;9.32;;;5.80;99.90;;;;;;4957951;29;20283;-95
2023/02/05 02:28:59;;;;;;;22.70;9.40;;;5.90;99.90;;;;;;4941241;29;20039;-96
2023/02/05 02:31:37;;;;;;;45.65;12.85;;;5.90;99.90;;;;;;4958128;29;20063;-96
2023/02/05 02:34:12;;;;;;;27.50;10.60;;;5.90;99.90;;;;;;4940191;29;20076;-96
2023/02/05 02:36:51;;;;;;;26.00;10.32;;;5.90;99.90;;;;;;4923254;29;20112;-96
2023/02/05 02:39:46;;;;;;;28.55;11.32;;;5.90;99.90;;;;;;4911299;29;20044;-95
2023/02/05 02:42:28;;;;;;;31.98;11.75;;;5.90;99.90;;;;;;4902258;29;20051;-96
2023/02/05 02:45:02;;;;;;;20.17;9.35;;;5.90;99.90;;;;;;4956752;29;20054;-96
2023/02/05 02:47:33;;;;;;;17.33;9.07;;;5.90;99.90;;;;;;4938458;29;20072;-96
2023/02/05 02:50:03;;;;;;;22.95;10.57;;;5.90;99.90;;;;;;4955468;29;20078;-96
2023/02/05 02:52:34;;;;;;;19.50;8.88;;;5.90;99.90;;;;;;4954556;29;20055;-96
2023/02/05 02:55:06;;;;;;;20.92;9.73;;;5.90;99.90;;;;;;4947517;29;20048;-96
2023/02/05 02:57:36;;;;;;;20.10;9.63;;;5.90;99.90;;;;;;4914945;29;20056;-96
2023/02/05 03:00:15;;;;;;;25.00;11.18;;;6.00;99.90;;;;;;4914844;29;20044;-96
2023/02/05 03:02:44;;;;;;;34.90;11.50;;;6.00;99.90;;;;;;4920543;29;20086;-96
2023/02/05 03:05:22;;;;;;;22.83;9.65;;;6.00;99.90;;;;;;4931222;29;20055;-95
2023/02/05 03:08:12;;;;;;;38.38;13.00;;;6.00;99.90;;;;;;4929691;29;20082;-96
2023/02/05 03:11:16;;;;;;;24.20;11.85;;;6.00;99.90;;;;;;4944303;29;20076;-95
2023/02/05 03:13:55;;;;;;;46.15;14.48;;;6.00;99.90;;;;;;4866899;29;20201;-95
2023/02/05 03:16:26;;;;;;;24.48;10.35;;;6.10;99.90;;;;;;4870836;29;20049;-95
2023/02/05 03:18:58;;;;;;;29.88;11.90;;;6.10;99.90;;;;;;4885516;29;20140;-96
2023/02/05 03:21:30;;;;;;;25.75;10.20;;;6.10;99.90;;;;;;4872048;29;20092;-96
2023/02/05 03:24:02;;;;;;;45.83;14.55;;;6.00;99.90;;;;;;4876173;29;20056;-95
2023/02/05 03:26:41;;;;;;;51.70;16.25;;;6.10;99.90;;;;;;4917592;29;20071;-95
2023/02/05 03:29:17;;;;;;;41.15;13.68;;;6.10;99.90;;;;;;4940526;29;20488;-95
2023/02/05 03:32:21;;;;;;;32.65;13.63;;;6.10;99.90;;;;;;4940266;29;20063;-95
2023/02/05 03:35:17;;;;;;;50.20;16.55;;;6.10;99.90;;;;;;4923821;29;20051;-95
2023/02/05 03:38:11;;;;;;;43.50;14.93;;;6.10;99.90;;;;;;4916149;29;20052;-94
2023/02/05 03:40:44;;;;;;;40.58;14.68;;;6.10;99.90;;;;;;4939228;29;20416;-94
2023/02/05 03:43:29;;;;;;;32.80;12.65;;;6.10;99.90;;;;;;4922580;29;20385;-94
2023/02/05 03:46:19;;;;;;;33.58;14.07;;;6.20;99.90;;;;;;4920346;29;20080;-95
2023/02/05 03:49:00;;;;;;;49.97;17.20;;;6.20;99.90;;;;;;4920840;29;20481;-94
2023/02/05 03:51:56;;;;;;;33.10;12.52;;;6.10;99.90;;;;;;4912385;29;20039;-94
2023/02/05 03:54:47;;;;;;;22.13;10.88;;;6.20;99.90;;;;;;4926440;29;20047;-94
2023/02/05 03:57:37;;;;;;;30.23;11.88;;;6.20;99.90;;;;;;4935051;29;20062;-95
2023/02/05 04:00:04;;;;;;;49.05;17.30;;;6.20;99.90;;;;;;4922814;29;20067;-94
2023/02/05 04:02:29;;;;;;;27.00;13.27;;;6.20;99.90;;;;;;4938926;29;20071;-94
2023/02/05 04:04:55;;;;;;;31.13;13.18;;;6.20;99.90;;;;;;4939540;29;20039;-95
2023/02/05 04:07:21;;;;;;;59.35;18.67;;;6.20;99.90;;;;;;4907941;29;20051;-94
2023/02/05 04:09:46;;;;;;;51.17;16.77;;;6.20;99.90;;;;;;4904120;29;20445;-95
2023/02/05 04:12:12;;;;;;;47.60;16.92;;;6.30;99.90;;;;;;4915639;29;20408;-94
2023/02/05 04:14:37;;;;;;;57.55;18.20;;;6.30;99.90;;;;;;4939261;29;20107;-94
2023/02/05 04:17:03;;;;;;;34.40;13.65;;;6.30;99.90;;;;;;4911350;29;20067;-94
2023/02/05 04:19:28;;;;;;;26.98;12.18;;;6.30;99.90;;;;;;4917671;29;20079;-95
2023/02/05 04:21:54;;;;;;;41.80;16.05;;;6.30;99.90;;;;;;4920981;29;20052;-95
2023/02/05 04:24:20;;;;;;;50.90;18.42;;;6.30;99.90;;;;;;4921381;29;20118;-94
2023/02/05 04:26:45;;;;;;;28.42;12.90;;;6.30;99.90;;;;;;4914046;29;20044;-94
2023/02/05 04:29:11;;;;;;;55.28;19.80;;;6.30;99.90;;;;;;4905630;29;20083;-94
2023/02/05 04:31:37;;;;;;;43.35;17.83;;;6.30;99.90;;;;;;4934560;29;20047;-94
2023/02/05 04:34:02;;;;;;;33.65;13.27;;;6.30;99.90;;;;;;4919640;29;20048;-95
2023/02/05 04:36:28;;;;;;;33.78;14.75;;;6.30;99.90;;;;;;4919589;29;20040;-94
2023/02/05 04:38:53;;;;;;;39.97;17.00;;;6.30;99.90;;;;;;4903161;29;20103;-95
2023/02/05 04:41:19;;;;;;;33.97;15.13;;;6.30;99.90;;;;;;4920169;29;20047;-95
2023/02/05 04:43:45;;;;;;;40.33;16.65;;;6.30;99.90;;;;;;4920176;29;20497;-95
2023/02/05 04:46:11;;;;;;;51.78;19.15;;;6.30;99.90;;;;;;4919592;29;20051;-95
2023/02/05 04:48:37;;;;;;;42.55;17.48;;;6.40;99.90;;;;;;4904952;29;20052;-94
2023/02/05 04:51:09;;;;;;;38.42;16.52;;;6.40;99.90;;;;;;4932411;23;20047;-96
2023/02/05 04:53:52;;;;;;;42.42;17.55;;;6.40;99.90;;;;;;4922868;29;20510;-93
2023/02/05 04:56:24;;;;;;;44.67;19.13;;;6.40;99.90;;;;;;4922311;29;20076;-94
2023/02/05 04:58:52;;;;;;;41.10;17.35;;;6.50;99.90;;;;;;4939377;29;20764;-95
2023/02/05 05:01:24;;;;;;;44.47;18.55;;;6.50;99.90;;;;;;4922202;29;20082;-96
2023/02/05 05:04:02;;;;;;;40.42;17.75;;;6.50;99.90;;;;;;4922862;29;20093;-94
2023/02/05 05:06:28;;;;;;;37.10;17.08;;;6.50;99.90;;;;;;4943824;29;20480;-95
2023/02/05 05:08:56;;;;;;;45.67;18.13;;;6.50;99.90;;;;;;4911150;29;20107;-96
2023/02/05 05:11:22;;;;;;;34.03;16.50;;;6.50;99.90;;;;;;4924673;29;20044;-95
2023/02/05 05:13:57;;;;;;;42.45;17.80;;;6.50;99.90;;;;;;4921762;29;20398;-95
2023/02/05 05:16:23;;;;;;;38.13;16.88;;;6.60;99.90;;;;;;4910063;29;20048;-96
2023/02/05 05:18:51;;;;;;;30.17;14.77;;;6.60;99.90;;;;;;4911194;29;20036;-95
2023/02/05 05:21:29;;;;;;;36.58;16.30;;;6.60;99.90;;;;;;4907444;29;20048;-96
2023/02/05 05:24:06;;;;;;;37.65;15.88;;;6.70;99.90;;;;;;4919477;29;20396;-96
2023/02/05 05:26:32;;;;;;;34.78;16.05;;;6.60;99.90;;;;;;4912046;29;20112;-96
2023/02/05 05:29:05;;;;;;;40.85;15.52;;;6.70;99.90;;;;;;4928504;29;20052;-96
2023/02/05 05:31:36;;;;;;;29.85;13.40;;;6.70;99.90;;;;;;4946991;29;20240;-95
2023/02/05 05:34:14;;;;;;;25.52;12.88;;;6.70;99.90;;;;;;4916256;29;20036;-95
2023/02/05 05:36:46;;;;;;;34.40;13.25;;;6.70;99.90;;;;;;4921940;29;20055;-96
2023/02/05 05:45:09;;;;;;;13.50;5.82;;;6.70;99.90;;;;;;4932162;29;20048;-96
2023/02/05 05:47:41;;;;;;;10.50;3.25;;;6.70;99.90;;;;;;4924019;29;20123;-95
2023/02/05 05:50:13;;;;;;;13.32;3.38;;;6.70;99.90;;;;;;4924690;29;20063;-95
2023/02/05 05:52:40;;;;;;;13.82;2.75;;;6.70;99.90;;;;;;4910532;29;20064;-95
2023/02/05 05:55:06;;;;;;;12.50;2.83;;;6.70;99.90;;;;;;4930083;29;20052;-95
2023/02/05 05:57:33;;;;;;;11.00;3.03;;;6.60;99.90;;;;;;4907823;29;20059;-95
2023/02/05 05:59:59;;;;;;;12.25;2.78;;;6.60;99.90;;;;;;4922668;29;20058;-95
2023/02/05 06:02:27;;;;;;;15.52;2.65;;;6.60;99.90;;;;;;4922368;29;20044;-94
2023/02/05 06:05:06;;;;;;;15.05;2.30;;;6.60;99.90;;;;;;4940682;29;20039;-96
2023/02/05 06:07:31;;;;;;;9.02;1.95;;;6.60;99.90;;;;;;4921807;29;20056;-93
2023/02/05 06:10:00;;;;;;;16.65;2.10;;;6.50;99.90;;;;;;4923511;29;20071;-95
2023/02/05 06:12:35;;;;;;;12.75;2.08;;;6.50;99.90;;;;;;4908111;29;20493;-95
2023/02/05 06:15:01;;;;;;;19.63;2.63;;;6.50;99.90;;;;;;4925127;29;20104;-95
2023/02/05 06:17:32;;;;;;;16.17;2.13;;;6.40;99.90;;;;;;4923995;29;20043;-95
2023/02/05 06:20:04;;;;;;;13.68;2.22;;;6.50;99.90;;;;;;4923449;29;20090;-95
2023/02/05 06:22:30;;;;;;;11.30;2.35;;;6.50;99.90;;;;;;4923200;29;20048;-93
2023/02/05 06:24:55;;;;;;;14.63;2.10;;;6.40;99.90;;;;;;4923496;29;20059;-92
2023/02/05 06:27:21;;;;;;;13.25;1.98;;;6.40;99.90;;;;;;4937772;29;20131;-95
2023/02/05 06:29:47;;;;;;;11.32;2.00;;;6.40;99.90;;;;;;4920776;29;20075;-96
2023/02/05 06:32:13;;;;;;;11.68;1.85;;;6.40;99.90;;;;;;4917401;29;20043;-94
2023/02/05 06:34:38;;;;;;;12.43;2.08;;;6.40;99.90;;;;;;4905381;29;20088;-96
2023/02/05 06:37:04;;;;;;;16.40;2.05;;;6.40;99.90;;;;;;4931748;29;20044;-94
2023/02/05 06:39:30;;;;;;;16.17;2.20;;;6.40;99.90;;;;;;4942181;29;20079;-95
2023/02/05 06:42:11;;;;;;;11.40;1.52;;;6.40;99.90;;;;;;4941309;23;21039;-96
2023/02/05 06:44:44;;;;;;;16.70;1.95;;;6.40;99.90;;;;;;4926295;29;20059;-96
2023/02/05 06:47:12;;;;;;;11.40;1.80;;;6.30;99.90;;;;;;4926425;29;20040;-96
2023/02/05 06:49:44;;;;;;;15.43;2.03;;;6.30;99.90;;;;;;4923970;29;20103;-96
2023/02/05 06:52:24;;;;;;;15.55;1.95;;;6.30;99.90;;;;;;4925254;29;20095;-96
2023/02/05 06:54:52;;;;;;;11.77;1.80;;;6.30;99.90;;;;;;4926009;29;20048;-96
2023/02/05 06:57:30;;;;;;;14.80;1.85;;;6.30;99.90;;;;;;4925097;29;20052;-96
2023/02/05 07:00:26;;;;;;;16.65;2.20;;;6.30;99.90;;;;;;4925827;29;20058;-96
2023/02/05 07:02:52;;;;;;;13.13;1.60;;;6.20;99.90;;;;;;4920883;29;20052;-96
2023/02/05 07:06:00;;;;;;;16.90;2.17;;;6.30;99.90;;;;;;4941297;29;20047;-96
2023/02/05 07:08:28;;;;;;;12.50;1.90;;;6.30;99.90;;;;;;4925960;29;20090;-96
2023/02/05 07:11:06;;;;;;;16.05;2.40;;;6.20;99.90;;;;;;4923799;29;20050;-96
2023/02/05 07:13:47;;;;;;;15.52;2.17;;;6.30;99.90;;;;;;4920616;29;20452;-96
2023/02/05 07:16:21;;;;;;;15.93;2.13;;;6.30;99.90;;;;;;4904250;29;20080;-94
2023/02/05 07:18:51;;;;;;;14.77;1.80;;;6.30;99.90;;;;;;4934765;29;20480;-96
2023/02/05 07:21:17;;;;;;;12.98;1.75;;;6.30;99.90;;;;;;4918964;29;20075;-96
2023/02/05 07:23:56;;;;;;;11.40;1.60;;;6.30;99.90;;;;;;4928793;29;20122;-94
2023/02/05 07:26:24;;;;;;;9.80;1.50;;;6.30;99.90;;;;;;4908876;29;20039;-96
2023/02/05 07:28:50;;;;;;;16.30;1.83;;;6.30;99.90;;;;;;4924076;29;20054;-94
2023/02/05 07:31:31;;;;;;;13.50;1.70;;;6.40;99.90;;;;;;4932562;29;20102;-96
2023/02/05 07:36:56;;;;;;;14.07;1.98;;;6.30;99.90;;;;;;4923533;29;20051;-95
2023/02/05 07:39:28;;;;;;;9.27;1.50;;;6.30;99.90;;;;;;4940667;29;20488;-96
2023/02/05 07:41:56;;;;;;;13.43;1.50;;;6.30;99.90;;;;;;4920830;29;20381;-95
2023/02/05 07:44:36;;;;;;;15.82;1.80;;;6.30;99.90;;;;;;4925240;29;20106;-96
2023/02/05 07:47:04;;;;;;;11.30;1.58;;;6.40;99.90;;;;;;4924123;29;20052;-96
2023/02/05 07:49:50;;;;;;;15.40;1.77;;;6.30;99.90;;;;;;4915796;29;20050;-96
2023/02/05 07:52:16;;;;;;;14.50;1.80;;;6.40;99.90;;;;;;4909676;29;20111;-96
2023/02/05 07:54:56;;;;;;;17.80;1.95;;;6.40;99.90;;;;;;4921172;29;20579;-96
2023/02/05 07:57:35;;;;;;;18.52;1.88;;;6.40;99.90;;;;;;4922427;29;20126;-96
2023/02/05 08:00:15;;;;;;;16.63;2.55;;;6.40;99.90;;;;;;4924969;29;20052;-96
2023/02/05 08:02:47;;;;;;;19.25;1.90;;;6.40;99.90;;;;;;4943408;29;20040;-96
2023/02/05 08:05:12;;;;;;;15.00;2.17;;;6.40;99.90;;;;;;4925208;29;20054;-96
2023/02/05 08:07:50;;;;;;;18.70;2.28;;;6.40;99.90;;;;;;4910336;29;20048;-96
2023/02/05 08:10:35;;;;;;;23.48;2.88;;;6.50;99.90;;;;;;4929689;29;20062;-95
2023/02/05 08:16:30;;;;;;;17.95;2.53;;;6.40;99.90;;;;;;4941162;29;20157;-96
2023/02/05 08:18:56;;;;;;;16.25;2.53;;;6.50;99.90;;;;;;4922607;29;20051;-95
2023/02/05 08:21:30;;;;;;;19.25;2.33;;;6.50;99.90;;;;;;4914655;29;20048;-93
2023/02/05 08:24:03;;;;;;;21.30;3.15;;;6.50;99.90;;;;;;4920231;29;20040;-93
2023/02/05 08:26:35;;;;;;;19.05;2.58;;;6.50;99.90;;;;;;4933649;29;20103;-94
2023/02/05 08:29:53;;;;;;;20.05;2.72;;;6.50;99.90;;;;;;4909915;29;20035;-96
2023/02/05 08:32:24;;;;;;;13.98;2.63;;;6.50;99.90;;;;;;4812550;29;20058;-93
2023/02/05 08:34:50;;;;;;;19.83;3.08;;;6.50;99.90;;;;;;4841611;29;20061;-89
2023/02/05 08:37:21;;;;;;;21.45;2.72;;;6.50;99.90;;;;;;4824618;29;20414;-88
2023/02/05 08:39:59;;;;;;;20.63;2.88;;;6.50;99.90;;;;;;4840936;29;20053;-89
2023/02/05 08:42:25;;;;;;;24.73;3.28;;;6.60;99.90;;;;;;4859292;29;20502;-90
2023/02/05 08:44:58;;;;;;;18.45;2.42;;;6.50;99.90;;;;;;4918913;29;20075;-90
2023/02/05 08:47:31;;;;;;;20.30;2.60;;;6.50;99.90;;;;;;4902989;29;20044;-90
2023/02/05 08:50:12;;;;;;;22.25;3.20;;;6.50;99.90;;;;;;4916705;29;20099;-90
2023/02/05 08:52:49;;;;;;;20.02;2.72;;;6.50;99.90;;;;;;4930016;29;20051;-90
2023/02/05 08:55:17;;;;;;;20.02;2.78;;;6.50;99.90;;;;;;4916769;29;20056;-90
2023/02/05 08:57:43;;;;;;;24.50;3.65;;;6.50;99.90;;;;;;4900749;29;20497;-90
2023/02/05 09:00:09;;;;;;;23.10;3.60;;;6.50;99.90;;;;;;4916978;29;20048;-90
2023/02/05 09:02:35;;;;;;;32.08;3.70;;;6.50;99.90;;;;;;4913604;29;20132;-90
2023/02/05 09:05:01;;;;;;;26.92;3.45;;;6.60;99.90;;;;;;4927932;29;20172;-90
2023/02/05 09:07:26;;;;;;;20.30;3.22;;;6.60;99.90;;;;;;4918882;29;20048;-91
2023/02/05 09:09:52;;;;;;;26.65;3.58;;;6.60;99.90;;;;;;4902215;29;20048;-93
2023/02/05 09:12:17;;;;;;;26.70;3.92;;;6.60;99.90;;;;;;4930576;29;20488;-95
2023/02/05 09:14:43;;;;;;;23.50;3.03;;;6.60;99.90;;;;;;4902446;29;20083;-93
2023/02/05 09:17:10;;;;;;;26.77;3.45;;;6.60;99.90;;;;;;4923038;29;20127;-93
2023/02/05 09:19:37;;;;;;;35.72;4.00;;;6.60;99.90;;;;;;4912281;29;20560;-92
2023/02/05 09:22:03;;;;;;;27.15;3.33;;;6.70;99.90;;;;;;4904135;29;20047;-93
2023/02/05 09:24:28;;;;;;;28.00;3.92;;;6.70;99.90;;;;;;4912388;29;20128;-93
2023/02/05 09:26:54;;;;;;;23.13;3.88;;;6.70;99.90;;;;;;4918835;29;20040;-94
2023/02/05 09:29:20;;;;;;;28.13;3.50;;;6.70;99.90;;;;;;4941558;29;20044;-95
2023/02/05 09:31:48;;;;;;;24.83;3.78;;;6.70;99.90;;;;;;4973208;23;20059;-94
2023/02/05 09:34:14;;;;;;;27.20;3.80;;;6.70;99.90;;;;;;4898828;29;20179;-93
2023/02/05 09:36:40;;;;;;;33.67;4.65;;;6.70;99.90;;;;;;4906193;29;20054;-93
2023/02/05 09:39:10;;;;;;;25.95;4.68;;;6.70;99.90;;;;;;4906458;29;20123;-93
2023/02/05 09:41:48;;;;;;;26.55;4.03;;;6.80;99.90;;;;;;4909087;29;20098;-93
2023/02/05 09:44:21;;;;;;;29.83;4.32;;;6.70;99.90;;;;;;4916195;29;20048;-92
2023/02/05 09:47:01;;;;;;;30.13;4.18;;;6.70;99.90;;;;;;4913822;29;20051;-92
2023/02/05 09:50:04;;;;;;;30.92;4.50;;;6.70;99.90;;;;;;4912786;29;20180;-93
2023/02/05 09:52:37;;;;;;;24.75;3.85;;;6.80;99.90;;;;;;4923295;29;20075;-95
2023/02/05 09:55:16;;;;;;;19.27;2.85;;;6.80;99.90;;;;;;4917917;29;20044;-96
2023/02/05 09:57:43;;;;;;;20.30;3.10;;;6.80;99.90;;;;;;4907067;29;20389;-95
2023/02/05 10:00:24;;;;;;;24.15;2.97;;;6.80;99.90;;;;;;4913704;29;20051;-94
2023/02/05 10:03:01;;;;;;;24.33;2.63;;;6.80;99.90;;;;;;4918918;29;20040;-95
2023/02/05 10:05:31;;;;;;;21.63;2.95;;;6.80;99.90;;;;;;4908290;29;20148;-96
2023/02/05 10:08:33;;;;;;;23.13;3.08;;;6.80;99.90;;;;;;4908725;29;20104;-95
2023/02/05 10:11:00;;;;;;;19.08;3.05;;;6.80;99.90;;;;;;4880062;29;20052;-95
2023/02/05 10:13:34;;;;;;;23.50;3.03;;;6.90;99.90;;;;;;4909763;29;20493;-94
2023/02/05 10:16:27;;;;;;;25.58;3.70;;;6.90;99.90;;;;;;4914363;29;20048;-93
2023/02/05 10:19:27;;;;;;;23.45;3.40;;;6.90;99.90;;;;;;4918982;29;20059;-94
2023/02/05 10:22:15;;;;;;;24.27;3.70;;;7.00;99.90;;;;;;4915582;29;20043;-93
2023/02/05 10:24:59;;;;;;;32.80;4.57;;;7.00;99.90;;;;;;4913037;29;20048;-91
2023/02/05 10:28:10;;;;;;;26.42;3.67;;;7.10;99.90;;;;;;4915990;29;20051;-88
2023/02/05 10:30:50;;;;;;;24.42;3.83;;;7.00;99.90;;;;;;4889514;29;20135;-90
2023/02/05 10:33:38;;;;;;;30.55;4.40;;;7.00;99.90;;;;;;4903693;29;20087;-90
2023/02/05 10:36:06;;;;;;;37.58;4.47;;;7.10;99.90;;;;;;4917682;29;20039;-90
2023/02/05 10:38:38;;;;;;;31.90;4.25;;;7.10;99.90;;;;;;4926546;29;20079;-90
2023/02/05 10:41:15;;;;;;;30.50;4.65;;;7.10;99.90;;;;;;4931001;29;20396;-92
2023/02/05 10:43:49;;;;;;;31.60;3.78;;;7.10;99.90;;;;;;4927148;29;20036;-91
2023/02/05 10:46:17;;;;;;;29.33;4.93;;;7.10;99.90;;;;;;4931851;29;20040;-88
2023/02/05 10:49:20;;;;;;;24.15;4.47;;;7.10;99.90;;;;;;4923989;29;20044;-94
2023/02/05 10:51:45;;;;;;;20.15;2.95;;;7.10;99.90;;;;;;4938303;29;20052;-92
2023/02/05 10:54:27;;;;;;;16.48;2.58;;;7.10;99.90;;;;;;4940079;29;20051;-95
2023/02/05 10:56:54;;;;;;;21.60;3.40;;;7.10;99.90;;;;;;4924290;29;20055;-94
2023/02/05 10:59:23;;;;;;;23.02;3.50;;;7.10;99.90;;;;;;4940961;29;20598;-93
2023/02/05 11:01:50;;;;;;;21.83;3.35;;;7.10;99.90;;;;;;4932211;29;20556;-93
2023/02/05 11:04:24;;;;;;;17.63;2.85;;;7.10;99.90;;;;;;4926274;29;20040;-93
2023/02/05 11:06:51;;;;;;;17.55;2.58;;;7.10;99.90;;;;;;4912515;29;20079;-92
2023/02/05 11:09:28;;;;;;;18.52;2.75;;;7.10;99.90;;;;;;4954490;23;20055;-93
2023/02/05 11:12:34;;;;;;;23.95;3.20;;;7.10;99.90;;;;;;4921916;29;20058;-93
2023/02/05 11:15:03;;;;;;;22.23;3.85;;;7.20;99.90;;;;;;4934498;29;20046;-92
2023/02/05 11:17:37;;;;;;;26.40;3.67;;;7.20;99.90;;;;;;4907081;29;20050;-94
2023/02/05 11:20:15;;;;;;;22.65;3.55;;;7.30;99.90;;;;;;4909630;29;20408;-95
2023/02/05 11:22:41;;;;;;;24.30;3.88;;;7.30;99.90;;;;;;4919673;29;20508;-94
2023/02/05 11:25:25;;;;;;;21.90;3.42;;;7.30;99.90;;;;;;4911031;29;20113;-93
2023/02/05 11:27:53;;;;;;;30.10;4.20;;;7.30;99.90;;;;;;4926039;29;20039;-92
2023/02/05 11:31:17;;;;;;;;;;;;;;;;;;;;;
2023/02/05 11:34:08;;;;;;;24.98;4.53;;;7.40;99.90;;;;;;4811280;29;20085;-93
2023/02/05 11:36:45;;;;;;;28.15;3.88;;;7.50;99.90;;;;;;4865858;29;20057;-95
2023/02/05 11:39:26;;;;;;;27.98;4.38;;;7.50;99.90;;;;;;4908143;29;20060;-93
2023/02/05 11:41:55;;;;;;;29.50;4.50;;;7.60;99.90;;;;;;4921409;29;20400;-94
2023/02/05 11:44:31;;;;;;;30.65;4.88;;;7.60;99.90;;;;;;4937914;29;20095;-94
2023/02/05 11:46:59;;;;;;;34.58;7.40;;;7.60;99.90;;;;;;4921325;29;20134;-95
2023/02/05 11:49:34;;;;;;;31.50;4.47;;;7.70;99.90;;;;;;4937542;29;20059;-93
2023/02/05 11:52:08;;;;;;;29.52;5.35;;;7.70;99.90;;;;;;4938004;29;20072;-95
2023/02/05 11:54:35;;;;;;;30.67;4.50;;;7.80;99.90;;;;;;4937003;29;20051;-91
2023/02/05 11:57:26;;;;;;;28.67;5.20;;;7.80;99.90;;;;;;4936953;29;20155;-93
2023/02/05 11:59:57;;;;;;;30.52;5.00;;;7.90;99.90;;;;;;4921536;29;20476;-94
2023/02/05 12:02:28;;;;;;;32.50;5.05;;;7.90;99.90;;;;;;4921070;29;20488;-94
2023/02/05 12:05:17;;;;;;;32.17;4.82;;;7.90;99.90;;;;;;4938239;29;20048;-93
2023/02/05 12:08:04;;;;;;;32.10;4.57;;;8.00;99.90;;;;;;4938051;29;20131;-94
2023/02/05 12:10:50;;;;;;;39.08;5.68;;;7.90;99.90;;;;;;4937263;29;20054;-91
2023/02/05 12:13:53;;;;;;;31.65;5.07;;;8.00;99.90;;;;;;4911705;23;20077;-93
2023/02/05 12:17:29;;;;;;;24.17;4.18;;;8.00;99.90;;;;;;4917718;29;20076;-95
2023/02/05 12:20:16;;;;;;;31.17;4.93;;;8.00;99.90;;;;;;4892479;29;20061;-96
2023/02/05 12:23:27;;;;;;;25.65;4.32;;;8.10;99.90;;;;;;4909751;29;20081;-96
2023/02/05 12:28:53;;;;;;;35.72;5.57;;;8.10;99.90;;;;;;5415016;23;20047;-95
2023/02/05 12:32:04;;;;;;;27.33;5.03;;;8.10;99.90;;;;;;4943223;29;20052;-94
2023/02/05 12:34:59;;;;;;;31.42;5.47;;;8.20;99.90;;;;;;4945147;29;20490;-95
2023/02/05 12:37:38;;;;;;;31.63;5.65;;;8.20;99.90;;;;;;4944457;29;20476;-95
2023/02/05 12:40:28;;;;;;;28.20;4.32;;;8.20;99.90;;;;;;4915308;29;20412;-95
2023/02/05 12:43:11;;;;;;;34.13;4.63;;;8.20;99.90;;;;;;4918482;29;20052;-95
2023/02/05 12:45:55;;;;;;;41.67;9.18;;;8.20;99.90;;;;;;4911539;29;20131;-95
2023/02/05 12:48:46;;;;;;;33.10;5.40;;;8.20;99.90;;;;;;4907684;29;20070;-96
2023/02/05 12:51:31;;;;;;;35.38;4.95;;;8.20;99.90;;;;;;4933955;29;20060;-96
2023/02/05 12:54:10;;;;;;;28.00;5.00;;;8.30;99.90;;;;;;4939993;29;20044;-96
2023/02/05 12:56:56;;;;;;;26.20;4.35;;;8.30;99.90;;;;;;4900539;29;20048;-95
2023/02/05 13:00:03;;;;;;;28.95;4.15;;;8.30;99.90;;;;;;4927353;29;20103;-95
2023/02/05 13:02:50;;;;;;;33.33;5.90;;;8.30;99.90;;;;;;4877803;29;20056;-94
2023/02/05 13:05:36;;;;;;;34.33;5.60;;;8.30;99.90;;;;;;4937625;23;20066;-94
2023/02/05 13:08:34;;;;;;;29.75;5.90;;;8.30;99.90;;;;;;4908380;29;20048;-95
2023/02/05 13:11:16;;;;;;;32.05;5.35;;;8.30;99.90;;;;;;4929369;29;20126;-95
2023/02/05 13:17:06;;;;;;;30.08;4.68;;;8.30;99.90;;;;;;4915535;29;20055;-94
2023/02/05 13:19:53;;;;;;;33.35;5.50;;;8.30;99.90;;;;;;4926417;29;20046;-96
2023/02/05 13:28:56;;;;;;;29.58;4.93;;;8.40;99.90;;;;;;4937858;29;20058;-94
2023/02/05 13:31:38;;;;;;;34.00;5.32;;;8.30;99.90;;;;;;4906305;29;20070;-91
2023/02/05 13:34:06;;;;;;;27.98;5.30;;;8.30;99.90;;;;;;4909367;29;20043;-92
2023/02/05 13:37:16;;;;;;;34.50;5.50;;;8.30;99.90;;;;;;4919210;29;20110;-89
2023/02/05 13:40:03;;;;;;;31.25;5.30;;;8.30;99.90;;;;;;4836131;29;20060;-94
2023/02/05 13:43:08;;;;;;;35.95;5.70;;;8.30;99.90;;;;;;4849855;29;20067;-96
2023/02/05 13:46:17;;;;;;;31.52;4.97;;;8.40;99.80;;;;;;4914919;29;20139;-94
2023/02/05 13:49:05;;;;;;;26.92;4.65;;;8.40;99.90;;;;;;4917801;29;20400;-95
2023/02/05 13:51:53;;;;;;;25.60;4.18;;;8.30;99.80;;;;;;4925470;29;20417;-95